Time;durP1;ratioP1;P1;durP2;ratioP2;P2;SDS_P1;SDS_P2;PMS_P1;PMS_P2;Temp;Humidity;BMP_temperature;BMP_pressure;BME280_temperature;BME280_humidity;BME280_pressure;Samples;Min_cycle;Max_cycle;Signal;HPM_P1;HPM_P2
2022/10/25 00:01:12;;;;;;;;;;;13.00;99.90;;;;;;5046997;28;19925;-84
2022/10/25 00:03:37;;;;;;;;;;;13.00;99.90;;;;;;5046816;28;19923;-84
2022/10/25 00:06:03;;;;;;;;;;;13.00;99.90;;;;;;5046828;28;19921;-85
2022/10/25 00:08:28;;;;;;;;;;;13.00;99.90;;;;;;5028598;28;19921;-85
2022/10/25 00:10:54;;;;;;;;;;;12.90;99.90;;;;;;5046525;28;20033;-85
2022/10/25 00:13:20;;;;;;;;;;;12.90;99.90;;;;;;5046577;28;19948;-84
2022/10/25 00:15:45;;;;;;;;;;;13.00;99.90;;;;;;5046345;28;20390;-84
2022/10/25 00:18:11;;;;;;;;;;;12.90;99.90;;;;;;5046960;28;20016;-81
2022/10/25 00:20:37;;;;;;;;;;;12.90;99.90;;;;;;5046858;28;19944;-82
2022/10/25 00:23:02;;;;;;;;;;;12.90;99.90;;;;;;5028682;28;19912;-85
2022/10/25 00:25:28;;;;;;;;;;;12.90;99.90;;;;;;5046742;28;19921;-87
2022/10/25 00:27:53;;;;;;;;;;;12.80;99.90;;;;;;5046979;28;20452;-86
2022/10/25 00:30:19;;;;;;;;;;;12.80;99.90;;;;;;5048135;28;19921;-86
2022/10/25 00:32:44;;;;;;;;;;;12.80;99.90;;;;;;5046465;28;19923;-85
2022/10/25 00:35:10;;;;;;;;;;;12.80;99.90;;;;;;5029879;28;19917;-85
2022/10/25 00:37:36;;;;;;;;;;;12.70;99.90;;;;;;5045585;28;19917;-87
2022/10/25 00:40:02;;;;;;;;;;;12.60;99.90;;;;;;5047349;28;19989;-87
2022/10/25 00:42:28;;;;;;;;;;;12.60;99.90;;;;;;5046242;28;19920;-87
2022/10/25 00:44:58;;;;;;;;;;;12.60;99.90;;;;;;5045415;28;19917;-87
2022/10/25 00:47:31;;;;;;;;;;;12.60;99.90;;;;;;5029183;28;19917;-85
2022/10/25 00:50:00;;;;;;;;;;;12.60;99.90;;;;;;5047629;28;19979;-86
2022/10/25 00:52:26;;;;;;;;;;;12.60;99.90;;;;;;5046415;28;20355;-86
2022/10/25 00:54:52;;;;;;;;;;;12.50;99.90;;;;;;5028281;28;19913;-86
2022/10/25 00:57:21;;;;;;;;;;;12.50;99.90;;;;;;5041048;28;19923;-86
2022/10/25 00:59:47;;;;;;;;;;;12.50;99.90;;;;;;5028734;28;19921;-86
2022/10/25 01:02:13;;;;;;;;;;;12.50;99.90;;;;;;5046565;28;19966;-87
2022/10/25 01:04:39;;;;;;;;;;;12.50;99.90;;;;;;5028203;28;19916;-87
2022/10/25 01:07:05;;;;;;;;;;;12.50;99.90;;;;;;5028999;28;20463;-85
2022/10/25 01:09:32;;;;;;;;;;;12.50;99.90;;;;;;5046892;28;19917;-83
2022/10/25 01:11:57;;;;;;;;;;;12.50;99.90;;;;;;5028579;28;19996;-82
2022/10/25 01:14:23;;;;;;;;;;;12.40;99.90;;;;;;5046154;28;20025;-84
2022/10/25 01:17:09;;;;;;;;;;;12.40;99.90;;;;;;5045960;28;19920;-84
2022/10/25 01:19:54;;;;;;;;;;;12.40;99.90;;;;;;5028339;28;20789;-84
2022/10/25 01:22:22;;;;;;;;;;;12.40;99.90;;;;;;5046332;28;20454;-85
2022/10/25 01:25:06;;;;;;;;;;;12.30;99.90;;;;;;5046833;28;20457;-87
2022/10/25 01:27:50;;;;;;;;;;;12.30;99.90;;;;;;5026350;28;19916;-86
2022/10/25 01:30:16;;;;;;;;;;;12.30;99.90;;;;;;5028182;28;19923;-83
2022/10/25 01:32:52;;;;;;;;;;;12.40;99.90;;;;;;5027642;28;19972;-83
2022/10/25 01:35:31;;;;;;;;;;;12.30;99.90;;;;;;5044149;28;20008;-85
2022/10/25 01:38:13;;;;;;;;;;;12.30;99.90;;;;;;5040612;28;19967;-82
2022/10/25 01:40:42;;;;;;;;;;;12.30;99.90;;;;;;5045920;28;19925;-83
2022/10/25 01:43:13;;;;;;;;;;;12.30;99.90;;;;;;5046274;28;20496;-82
2022/10/25 01:45:41;;;;;;;;;;;12.20;99.90;;;;;;5045900;28;19927;-82
2022/10/25 01:48:11;;;;;;;;;;;12.20;99.90;;;;;;5028733;28;20042;-85
2022/10/25 01:50:42;;;;;;;;;;;12.30;99.90;;;;;;5048480;28;20514;-86
2022/10/25 01:53:07;;;;;;;;;;;12.20;99.90;;;;;;5049163;28;20014;-85
2022/10/25 01:55:35;;;;;;;;;;;12.20;99.90;;;;;;5047808;28;19921;-85
2022/10/25 01:58:10;;;;;;;;;;;12.20;99.90;;;;;;5049873;28;20392;-85
2022/10/25 02:00:59;;;;;;;;;;;12.20;99.90;;;;;;5032078;28;19928;-85
2022/10/25 02:03:29;;;;;;;;;;;12.20;99.90;;;;;;5047851;28;19917;-85
2022/10/25 02:06:00;;;;;;;;;;;12.10;99.90;;;;;;5041515;28;19917;-86
2022/10/25 02:08:34;;;;;;;;;;;12.00;99.90;;;;;;5048850;28;19928;-84
2022/10/25 02:11:18;;;;;;;;;;;12.00;99.90;;;;;;5030209;28;19917;-85
2022/10/25 02:13:47;;;;;;;;;;;12.00;99.90;;;;;;5030555;28;19977;-85
2022/10/25 02:16:15;;;;;;;;;;;11.90;99.90;;;;;;5048837;28;20463;-85
2022/10/25 02:18:44;;;;;;;;;;;12.00;99.90;;;;;;5031304;28;20459;-85
2022/10/25 02:21:11;;;;;;;;;;;12.00;99.90;;;;;;5048703;28;19929;-85
2022/10/25 02:23:36;;;;;;;;;;;12.00;99.90;;;;;;5030872;28;19912;-84
2022/10/25 02:26:06;;;;;;;;;;;12.10;99.90;;;;;;5029831;28;19923;-85
2022/10/25 02:28:33;;;;;;;;;;;12.00;99.90;;;;;;5048528;28;20614;-85
2022/10/25 02:30:59;;;;;;;;;;;12.00;99.90;;;;;;5030230;28;19960;-86
2022/10/25 02:33:25;;;;;;;;;;;12.00;99.90;;;;;;5048288;28;20018;-84
2022/10/25 02:36:03;;;;;;;;;;;12.00;99.90;;;;;;5048116;28;20312;-84
2022/10/25 02:38:29;;;;;;;;;;;11.80;99.90;;;;;;5044322;28;19921;-85
2022/10/25 02:40:54;;;;;;;;;;;11.80;99.90;;;;;;5047040;28;20649;-83
2022/10/25 02:43:20;;;;;;;;;;;11.80;99.90;;;;;;5048461;28;20774;-84
2022/10/25 02:45:45;;;;;;;;;;;11.80;99.90;;;;;;5030831;28;19924;-84
2022/10/25 02:48:11;;;;;;;;;;;11.80;99.90;;;;;;5048706;28;19924;-84
2022/10/25 02:50:36;;;;;;;;;;;11.70;99.90;;;;;;5024637;28;19920;-84
2022/10/25 02:53:02;;;;;;;;;;;11.70;99.90;;;;;;5046881;28;19913;-85
2022/10/25 02:55:27;;;;;;;;;;;11.70;99.90;;;;;;5045891;28;19916;-82
2022/10/25 02:57:53;;;;;;;;;;;11.70;99.90;;;;;;5047713;28;20411;-83
2022/10/25 03:00:18;;;;;;;;;;;11.60;99.90;;;;;;5046833;28;20403;-84
2022/10/25 03:02:44;;;;;;;;;;;11.60;99.90;;;;;;5047653;28;19917;-82
2022/10/25 03:05:09;;;;;;;;;;;11.60;99.90;;;;;;5047409;28;19967;-82
2022/10/25 03:07:35;;;;;;;;;;;11.60;99.90;;;;;;5047622;28;19979;-84
2022/10/25 03:10:00;;;;;;;;;;;11.60;99.90;;;;;;5047257;28;19917;-83
2022/10/25 03:12:26;;;;;;;;;;;11.70;99.90;;;;;;5047951;28;19916;-83
2022/10/25 03:14:51;;;;;;;;;;;11.70;99.90;;;;;;5030134;28;20518;-83
2022/10/25 03:17:17;;;;;;;;;;;11.80;99.90;;;;;;5050643;28;19923;-84
2022/10/25 03:19:42;;;;;;;;;;;11.90;99.90;;;;;;5047769;28;19916;-84
2022/10/25 03:22:08;;;;;;;;;;;11.90;99.90;;;;;;5047089;28;20404;-84
2022/10/25 03:24:33;;;;;;;;;;;11.90;99.90;;;;;;5029220;28;19920;-83
2022/10/25 03:27:00;;;;;;;;;;;11.80;99.90;;;;;;5047121;28;19959;-83
2022/10/25 03:29:26;;;;;;;;;;;11.80;99.90;;;;;;5029374;28;19917;-84
2022/10/25 03:31:51;;;;;;;;;;;11.90;99.90;;;;;;5030627;28;20646;-83
2022/10/25 03:34:17;;;;;;;;;;;12.00;99.90;;;;;;5028914;28;19917;-83
2022/10/25 03:36:42;;;;;;;;;;;12.00;99.90;;;;;;5047998;28;19970;-84
2022/10/25 03:39:08;;;;;;;;;;;12.00;99.90;;;;;;5047662;28;19920;-84
2022/10/25 03:41:34;;;;;;;;;;;12.00;99.90;;;;;;5047748;28;19925;-83
2022/10/25 03:43:59;;;;;;;;;;;11.90;99.90;;;;;;5047788;28;20479;-84
2022/10/25 03:46:25;;;;;;;;;;;12.00;99.90;;;;;;5028802;28;19917;-83
2022/10/25 03:48:50;;;;;;;;;;;12.00;99.90;;;;;;5047718;28;19913;-83
2022/10/25 03:51:16;;;;;;;;;;;12.00;99.90;;;;;;5028685;28;19923;-83
2022/10/25 03:53:41;;;;;;;;;;;12.00;99.90;;;;;;5046221;28;19917;-85
2022/10/25 03:56:07;;;;;;;;;;;12.10;99.90;;;;;;5026899;28;20391;-82
2022/10/25 03:58:33;;;;;;;;;;;12.10;99.90;;;;;;5028636;28;20371;-82
2022/10/25 04:00:58;;;;;;;;;;;12.10;99.90;;;;;;5040777;28;20035;-83
2022/10/25 04:03:24;;;;;;;;;;;12.00;99.90;;;;;;5029212;28;19917;-87
2022/10/25 04:05:49;;;;;;;;;;;12.00;99.90;;;;;;5028640;28;20427;-86
2022/10/25 04:08:15;;;;;;;;;;;11.90;99.90;;;;;;5047226;28;19923;-84
2022/10/25 04:10:40;;;;;;;;;;;11.80;99.90;;;;;;5046488;28;19923;-83
2022/10/25 04:13:06;;;;;;;;;;;11.80;99.90;;;;;;5046564;28;19974;-83
2022/10/25 04:15:31;;;;;;;;;;;11.90;99.90;;;;;;5046051;28;19982;-85
2022/10/25 04:17:57;;;;;;;;;;;11.90;99.90;;;;;;5046803;28;19917;-86
2022/10/25 04:20:23;;;;;;;;;;;11.90;99.90;;;;;;5046810;28;19925;-82
2022/10/25 04:22:52;;;;;;;;;;;11.90;99.90;;;;;;5028786;28;19976;-84
2022/10/25 04:25:18;;;;;;;;;;;11.80;99.90;;;;;;5028665;28;19916;-81
2022/10/25 04:27:43;;;;;;;;;;;11.90;99.90;;;;;;5047020;28;19923;-83
2022/10/25 04:30:09;;;;;;;;;;;11.80;99.90;;;;;;5047139;28;19984;-83
2022/10/25 04:32:35;;;;;;;;;;;11.80;99.90;;;;;;5047026;28;20788;-84
2022/10/25 04:35:00;;;;;;;;;;;11.90;99.90;;;;;;5028149;28;20628;-82
2022/10/25 04:37:26;;;;;;;;;;;11.90;99.90;;;;;;5043542;28;19924;-84
2022/10/25 04:39:51;;;;;;;;;;;11.90;99.90;;;;;;5046415;28;19970;-84
2022/10/25 04:42:18;;;;;;;;;;;11.80;99.90;;;;;;5028681;28;19917;-87
2022/10/25 04:44:43;;;;;;;;;;;11.80;99.90;;;;;;5042163;28;19978;-82
2022/10/25 04:47:09;;;;;;;;;;;11.80;99.90;;;;;;5046223;28;19916;-81
2022/10/25 04:49:35;;;;;;;;;;;11.70;99.90;;;;;;5028636;28;19987;-82
2022/10/25 04:52:00;;;;;;;;;;;11.80;99.90;;;;;;5046302;28;19962;-83
2022/10/25 04:54:26;;;;;;;;;;;11.80;99.90;;;;;;5047137;28;19913;-81
2022/10/25 04:56:51;;;;;;;;;;;11.70;99.90;;;;;;5040150;28;20388;-82
2022/10/25 04:59:17;;;;;;;;;;;11.70;99.90;;;;;;5046164;28;19916;-87
2022/10/25 05:01:42;;;;;;;;;;;11.70;99.90;;;;;;5029186;28;19927;-84
2022/10/25 05:04:08;;;;;;;;;;;11.70;99.90;;;;;;5028989;28;19995;-84
2022/10/25 05:06:33;;;;;;;;;;;11.70;99.90;;;;;;5047081;28;19986;-86
2022/10/25 05:08:59;;;;;;;;;;;11.80;99.90;;;;;;5047298;28;20104;-86
2022/10/25 05:11:24;;;;;;;;;;;11.70;99.90;;;;;;5027821;28;20023;-83
2022/10/25 05:13:50;;;;;;;;;;;11.60;99.90;;;;;;5028440;28;19964;-81
2022/10/25 05:16:20;;;;;;;;;;;11.60;99.90;;;;;;5045696;28;19925;-81
2022/10/25 05:18:45;;;;;;;;;;;11.60;99.90;;;;;;5029226;28;19923;-81
2022/10/25 05:21:11;;;;;;;;;;;11.60;99.90;;;;;;5028159;28;19924;-81
2022/10/25 05:23:36;;;;;;;;;;;11.60;99.90;;;;;;5046320;28;19921;-83
2022/10/25 05:26:13;;;;;;;;;;;11.60;99.90;;;;;;5050067;28;19912;-81
2022/10/25 05:28:39;;;;;;;;;;;11.60;99.90;;;;;;5050774;28;20015;-81
2022/10/25 05:31:09;;;;;;;;;;;11.50;99.90;;;;;;5031927;28;19921;-82
2022/10/25 05:33:35;;;;;;;;;;;11.50;99.90;;;;;;5051024;28;19917;-81
2022/10/25 05:36:01;;;;;;;;;;;11.50;99.90;;;;;;5050567;28;19924;-83
2022/10/25 05:38:28;;;;;;;;;;;11.50;99.90;;;;;;5048841;28;19917;-82
2022/10/25 05:40:54;;;;;;;;;;;11.40;99.90;;;;;;5027125;28;19924;-85
2022/10/25 05:43:19;;;;;;;;;;;11.50;99.90;;;;;;5046095;28;20400;-83
2022/10/25 05:45:45;;;;;;;;;;;11.50;99.90;;;;;;5049670;28;19912;-84
2022/10/25 05:48:11;;;;;;;;;;;11.50;99.90;;;;;;5049892;28;19955;-85
2022/10/25 05:50:36;;;;;;;;;;;11.50;99.90;;;;;;5049734;28;19924;-84
2022/10/25 05:53:02;;;;;;;;;;;11.60;99.90;;;;;;5050311;28;19913;-84
2022/10/25 05:55:27;;;;;;;;;;;11.50;99.90;;;;;;5048106;28;19913;-83
2022/10/25 05:57:53;;;;;;;;;;;11.40;99.90;;;;;;5049968;28;19913;-84
2022/10/25 06:00:18;;;;;;;;;;;11.40;99.90;;;;;;5048049;28;19931;-85
2022/10/25 06:02:44;;;;;;;;;;;11.40;99.90;;;;;;5049911;28;20777;-88
2022/10/25 06:05:09;;;;;;;;;;;11.40;99.90;;;;;;5041387;28;20098;-84
2022/10/25 06:07:35;;;;;;;;;;;11.40;99.90;;;;;;5041050;28;19921;-84
2022/10/25 06:10:00;;;;;;;;;;;11.50;99.90;;;;;;5044112;28;19924;-84
2022/10/25 06:12:26;;;;;;;;;;;11.50;99.90;;;;;;5013108;28;19913;-84
2022/10/25 06:14:51;;;;;;;;;;;11.50;99.90;;;;;;5019857;28;20524;-84
2022/10/25 06:17:17;;;;;;;;;;;11.50;99.90;;;;;;5027451;28;20280;-85
2022/10/25 06:19:42;;;;;;;;;;;11.50;99.90;;;;;;5033581;28;20004;-85
2022/10/25 06:22:08;;;;;;;;;;;11.50;99.90;;;;;;5011982;28;19921;-84
2022/10/25 06:24:34;;;;;;;;;;;11.50;99.90;;;;;;5032054;28;19917;-84
2022/10/25 06:26:59;;;;;;;;;;;11.50;99.90;;;;;;5033872;28;19921;-84
2022/10/25 06:29:25;;;;;;;;;;;11.60;99.90;;;;;;5034472;28;20308;-83
2022/10/25 06:31:50;;;;;;;;;;;11.60;99.90;;;;;;5013715;28;19913;-84
2022/10/25 06:34:16;;;;;;;;;;;11.50;99.90;;;;;;5031838;28;19924;-84
2022/10/25 06:36:42;;;;;;;;;;;11.50;99.90;;;;;;5015310;28;19913;-84
2022/10/25 06:39:07;;;;;;;;;;;11.50;99.90;;;;;;5016729;28;20405;-84
2022/10/25 06:41:35;;;;;;;;;;;11.60;99.90;;;;;;5036343;28;19916;-84
2022/10/25 06:44:00;;;;;;;;;;;11.60;99.90;;;;;;5029269;28;19967;-84
2022/10/25 06:46:27;;;;;;;;;;;11.50;99.90;;;;;;5015148;28;19917;-84
2022/10/25 06:48:54;;;;;;;;;;;11.50;99.90;;;;;;5036903;28;19914;-84
2022/10/25 06:51:20;;;;;;;;;;;11.60;99.90;;;;;;5018047;28;19924;-83
2022/10/25 06:53:46;;;;;;;;;;;11.60;99.90;;;;;;5049325;28;19964;-83
2022/10/25 06:56:12;;;;;;;;;;;11.70;99.90;;;;;;5046347;28;19951;-84
2022/10/25 06:58:38;;;;;;;;;;;11.70;99.90;;;;;;5030826;28;19913;-85
2022/10/25 07:01:07;;;;;;;;;;;11.70;99.90;;;;;;5049203;28;19917;-83
2022/10/25 07:03:36;;;;;;;;;;;11.70;99.90;;;;;;5031129;28;19955;-84
2022/10/25 07:06:04;;;;;;;;;;;11.80;99.90;;;;;;5031318;28;19913;-84
2022/10/25 07:08:31;;;;;;;;;;;11.80;99.90;;;;;;5048446;28;19962;-83
2022/10/25 07:10:56;;;;;;;;;;;11.80;99.90;;;;;;5030673;28;19920;-83
2022/10/25 07:13:22;;;;;;;;;;;11.90;99.90;;;;;;5031171;28;19913;-84
2022/10/25 07:15:48;;;;;;;;;;;11.90;99.90;;;;;;5048314;28;19944;-85
2022/10/25 07:18:13;;;;;;;;;;;12.00;99.90;;;;;;5056169;28;19920;-84
2022/10/25 07:20:39;;;;;;;;;;;12.00;99.90;;;;;;5048350;28;19924;-84
2022/10/25 07:23:04;;;;;;;;;;;12.10;99.90;;;;;;5048575;28;20451;-84
2022/10/25 07:25:30;;;;;;;;;;;12.20;99.90;;;;;;5051373;28;19914;-85
2022/10/25 07:27:56;;;;;;;;;;;12.30;99.90;;;;;;5042845;28;19912;-84
2022/10/25 07:30:21;;;;;;;;;;;12.30;99.90;;;;;;5048749;28;20395;-84
2022/10/25 07:32:47;;;;;;;;;;;12.30;99.90;;;;;;5048375;28;19909;-84
2022/10/25 07:35:13;;;;;;;;;;;12.40;99.90;;;;;;5048009;28;20653;-84
2022/10/25 07:37:38;;;;;;;;;;;12.40;99.90;;;;;;5048285;28;19913;-83
2022/10/25 07:40:04;;;;;;;;;;;12.50;99.90;;;;;;5048306;28;19913;-84
2022/10/25 07:42:29;;;;;;;;;;;12.40;99.90;;;;;;5029666;28;19916;-84
2022/10/25 07:44:55;;;;;;;;;;;12.50;99.90;;;;;;5030101;28;20551;-84
2022/10/25 07:47:20;;;;;;;;;;;12.50;99.90;;;;;;5047879;28;20630;-85
2022/10/25 07:49:46;;;;;;;;;;;12.50;99.90;;;;;;5048122;28;19967;-84
2022/10/25 07:52:12;;;;;;;;;;;12.50;99.90;;;;;;5029936;28;19956;-84
2022/10/25 07:54:38;;;;;;;;;;;12.50;99.90;;;;;;5027140;28;19971;-84
2022/10/25 07:57:05;;;;;;;;;;;12.50;99.90;;;;;;5022560;28;19948;-83
2022/10/25 07:59:31;;;;;;;;;;;12.70;99.90;;;;;;5027796;28;19917;-85
2022/10/25 08:01:56;;;;;;;;;;;12.90;99.90;;;;;;5047723;28;19966;-84
2022/10/25 08:04:22;;;;;;;;;;;13.10;99.90;;;;;;5047775;28;20427;-84
2022/10/25 08:06:47;;;;;;;;;;;13.50;99.90;;;;;;5047573;28;19956;-84
2022/10/25 08:09:13;;;;;;;;;;;14.10;99.90;;;;;;5048309;28;20300;-84
2022/10/25 08:11:38;;;;;;;;;;;14.70;99.90;;;;;;5047613;28;19920;-84
2022/10/25 08:14:04;;;;;;;;;;;15.30;99.90;;;;;;5047551;28;19967;-84
2022/10/25 08:16:29;;;;;;;;;;;15.20;99.90;;;;;;5029657;28;19932;-84
2022/10/25 08:18:55;;;;;;;;;;;14.70;99.90;;;;;;5055592;28;19913;-85
2022/10/25 08:21:20;;;;;;;;;;;14.40;99.90;;;;;;5047306;28;19968;-84
2022/10/25 08:23:46;;;;;;;;;;;14.50;99.90;;;;;;5047075;28;19916;-84
2022/10/25 08:26:12;;;;;;;;;;;14.50;99.90;;;;;;5051250;28;19909;-84
2022/10/25 08:28:37;;;;;;;;;;;15.30;99.90;;;;;;5047054;28;20464;-85
2022/10/25 08:31:03;;;;;;;;;;;15.70;99.90;;;;;;5048036;28;19959;-85
2022/10/25 08:33:29;;;;;;;;;;;16.00;99.90;;;;;;5030306;28;19917;-85
2022/10/25 08:35:54;;;;;;;;;;;16.30;99.90;;;;;;5045041;28;20348;-84
2022/10/25 08:38:20;;;;;;;;;;;16.10;99.90;;;;;;5029183;28;19919;-85
2022/10/25 08:40:46;;;;;;;;;;;16.40;99.90;;;;;;5027423;28;20062;-87
2022/10/25 08:43:11;;;;;;;;;;;16.30;99.90;;;;;;5029886;28;19912;-85
2022/10/25 08:45:39;;;;;;;;;;;16.60;99.90;;;;;;5047605;28;20303;-85
2022/10/25 08:48:10;;;;;;;;;;;16.10;99.90;;;;;;5047641;28;19936;-86
2022/10/25 08:50:54;;;;;;;;;;;15.60;99.90;;;;;;5029431;28;19920;-85
2022/10/25 08:53:22;;;;;;;;;;;15.50;99.90;;;;;;5036091;28;20439;-86
2022/10/25 08:55:48;;;;;;;;;;;15.60;99.90;;;;;;5033807;28;19947;-88
2022/10/25 08:58:16;;;;;;;;;;;15.70;99.90;;;;;;5032158;28;19917;-88
2022/10/25 09:00:43;;;;;;;;;;;16.40;99.90;;;;;;5050197;28;19921;-88
2022/10/25 09:03:23;;;;;;;;;;;16.40;99.90;;;;;;5027187;28;19913;-86
2022/10/25 09:06:01;;;;;;;;;;;17.80;98.80;;;;;;5028705;28;20007;-88
2022/10/25 09:08:37;;;;;;;;;;;16.90;99.00;;;;;;5026975;28;19913;-86
2022/10/25 09:11:09;;;;;;;;;;;16.70;99.50;;;;;;5036725;28;20400;-91
2022/10/25 09:13:41;;;;;;;;;;;17.70;97.80;;;;;;5039840;28;19952;-90
2022/10/25 09:16:17;;;;;;;;;;;17.70;97.30;;;;;;5051554;28;19928;-91
2022/10/25 09:18:46;;;;;;;;;;;17.40;98.40;;;;;;5032787;28;21407;-84
2022/10/25 09:21:26;;;;;;;;;;;17.50;98.30;;;;;;5031265;28;19931;-85
2022/10/25 09:23:56;;;;;;;;;;;17.80;98.60;;;;;;5044269;28;19924;-84
2022/10/25 09:26:24;;;;;;;;;;;17.80;97.30;;;;;;5035673;28;19913;-85
2022/10/25 09:28:56;;;;;;;;;;;17.60;98.30;;;;;;5032463;28;19947;-85
2022/10/25 09:31:23;;;;;;;;;;;17.30;98.00;;;;;;5045511;28;19912;-85
2022/10/25 09:33:50;;;;;;;;;;;17.00;98.20;;;;;;5032617;28;19935;-84
2022/10/25 09:36:16;;;;;;;;;;;17.10;98.50;;;;;;5044888;28;19913;-86
2022/10/25 09:38:44;;;;;;;;;;;17.20;97.80;;;;;;5050419;28;19913;-84
2022/10/25 09:41:09;;;;;;;;;;;17.30;98.10;;;;;;5025633;28;20035;-85
2022/10/25 09:43:37;;;;;;;;;;;17.40;98.70;;;;;;5050133;28;20027;-86
2022/10/25 09:46:10;;;;;;;;;;;17.50;98.40;;;;;;5050229;28;19916;-85
2022/10/25 09:48:45;;;;;;;;;;;17.80;98.80;;;;;;5047894;28;19912;-84
2022/10/25 09:51:12;;;;;;;;;;;17.90;97.80;;;;;;5030424;28;19912;-85
2022/10/25 09:53:39;;;;;;;;;;;18.20;97.90;;;;;;5048813;28;19913;-85
2022/10/25 09:56:05;;;;;;;;;;;18.30;97.60;;;;;;5026809;28;19919;-85
2022/10/25 09:58:37;;;;;;;;;;;18.00;96.50;;;;;;5049721;28;19924;-84
2022/10/25 10:01:23;;;;;;;;;;;18.00;97.00;;;;;;5049534;28;20331;-85
2022/10/25 10:03:49;;;;;;;;;;;18.00;98.40;;;;;;5031939;28;19921;-85
2022/10/25 10:06:21;;;;;;;;;;;18.00;97.30;;;;;;5049623;28;20020;-85
2022/10/25 10:09:06;;;;;;;;;;;18.10;99.00;;;;;;5050111;28;19913;-84
2022/10/25 10:11:33;;;;;;;;;;;18.10;98.00;;;;;;5049631;28;19913;-86
2022/10/25 10:14:00;;;;;;;;;;;17.90;98.60;;;;;;5049635;28;19924;-85
2022/10/25 10:16:30;;;;;;;;;;;17.80;97.20;;;;;;5049970;28;19964;-85
2022/10/25 10:19:12;;;;;;;;;;;17.90;97.20;;;;;;5022080;28;19962;-85
2022/10/25 10:21:41;;;;;;;;;;;17.90;96.90;;;;;;5049912;28;19921;-85
2022/10/25 10:24:14;;;;;;;;;;;18.00;97.30;;;;;;5049403;28;19920;-85
2022/10/25 10:26:50;;;;;;;;;;;18.10;96.80;;;;;;5049515;28;19917;-85
2022/10/25 10:29:23;;;;;;;;;;;18.30;97.00;;;;;;5038367;28;19913;-85
2022/10/25 10:31:50;;;;;;;;;;;18.40;96.50;;;;;;5031370;28;20451;-85
2022/10/25 10:34:25;;;;;;;;;;;18.50;95.70;;;;;;5049726;28;19912;-84
2022/10/25 10:37:03;;;;;;;;;;;18.60;96.30;;;;;;5048939;28;20012;-85
2022/10/25 10:39:29;;;;;;;;;;;18.70;96.10;;;;;;5042054;28;19920;-84
2022/10/25 10:42:01;;;;;;;;;;;18.70;95.90;;;;;;5048780;28;19917;-85
2022/10/25 10:44:28;;;;;;;;;;;18.60;96.30;;;;;;5031957;28;20358;-85
2022/10/25 10:46:56;;;;;;;;;;;18.50;95.80;;;;;;5028978;28;19913;-85
2022/10/25 10:49:29;;;;;;;;;;;18.40;96.50;;;;;;5031355;28;20342;-84
2022/10/25 10:51:55;;;;;;;;;;;18.40;96.80;;;;;;5049430;28;19913;-85
2022/10/25 10:54:25;;;;;;;;;;;18.40;97.00;;;;;;5031572;28;20584;-85
2022/10/25 10:56:52;;;;;;;;;;;18.50;97.10;;;;;;5027867;28;19945;-85
2022/10/25 10:59:27;;;;;;;;;;;18.60;96.80;;;;;;5049083;28;19920;-85
2022/10/25 11:01:52;;;;;;;;;;;18.70;96.80;;;;;;5047318;28;20295;-85
2022/10/25 11:04:18;;;;;;;;;;;18.80;96.80;;;;;;5049336;28;19913;-85
2022/10/25 11:06:43;;;;;;;;;;;19.30;96.50;;;;;;5048485;28;19938;-85
2022/10/25 11:09:11;;;;;;;;;;;19.50;96.70;;;;;;5030828;28;19991;-85
2022/10/25 11:11:36;;;;;;;;;;;19.60;96.00;;;;;;5031095;28;20369;-84
2022/10/25 11:14:08;;;;;;;;;;;19.70;94.20;;;;;;5048994;28;19936;-85
2022/10/25 11:16:57;;;;;;;;;;;20.00;93.40;;;;;;5031056;28;19913;-85
2022/10/25 11:19:30;;;;;;;;;;;20.20;93.90;;;;;;5041317;28;19909;-85
2022/10/25 11:21:58;;;;;;;;;;;20.40;91.60;;;;;;5026431;28;19947;-85
2022/10/25 11:24:27;;;;;;;;;;;20.20;90.90;;;;;;5048472;28;19913;-85
2022/10/25 11:26:58;;;;;;;;;;;20.20;92.30;;;;;;5048136;28;20023;-85
2022/10/25 11:29:29;;;;;;;;;;;20.00;89.10;;;;;;5048883;28;19913;-85
2022/10/25 11:32:13;;;;;;;;;;;19.80;91.10;;;;;;5048668;28;19919;-83
2022/10/25 11:34:54;;;;;;;;;;;19.90;90.50;;;;;;5048975;28;20331;-84
2022/10/25 11:37:40;;;;;;;;;;;20.00;90.00;;;;;;5044370;28;19930;-83
2022/10/25 11:40:19;;;;;;;;;;;20.00;89.80;;;;;;5045327;28;19912;-84
2022/10/25 11:42:47;;;;;;;;;;;20.00;88.50;;;;;;5041158;28;19920;-84
2022/10/25 11:45:13;;;;;;;;;;;19.90;90.10;;;;;;5047754;28;19999;-83
2022/10/25 11:47:48;;;;;;;;;;;20.10;89.20;;;;;;5048034;28;19983;-83
2022/10/25 11:50:22;;;;;;;;;;;20.70;88.60;;;;;;5048152;28;20873;-83
2022/10/25 11:52:47;;;;;;;;;;;20.90;86.50;;;;;;5030062;28;20049;-84
2022/10/25 11:55:27;;;;;;;;;;;21.30;86.70;;;;;;5047794;28;20023;-84
2022/10/25 11:58:01;;;;;;;;;;;21.30;85.80;;;;;;5045704;28;20012;-84
2022/10/25 12:00:44;;;;;;;;;;;21.20;85.00;;;;;;5047536;28;19920;-84
2022/10/25 12:03:28;;;;;;;;;;;21.10;82.90;;;;;;5045180;28;19917;-83
2022/10/25 12:06:07;;;;;;;;;;;21.20;81.80;;;;;;5047925;28;19919;-84
2022/10/25 12:08:51;;;;;;;;;;;20.90;81.60;;;;;;5046714;28;20018;-83
2022/10/25 12:11:19;;;;;;;;;;;20.80;83.40;;;;;;5042180;28;19999;-83
2022/10/25 12:13:48;;;;;;;;;;;20.60;81.80;;;;;;5047207;28;19912;-83
2022/10/25 12:16:15;;;;;;;;;;;20.60;82.40;;;;;;5047567;28;19926;-83
2022/10/25 12:18:43;;;;;;;;;;;20.50;82.00;;;;;;5029398;28;19924;-83
2022/10/25 12:21:10;;;;;;;;;;;20.50;81.70;;;;;;5047357;28;19920;-83
2022/10/25 12:23:44;;;;;;;;;;;20.40;81.80;;;;;;5047114;28;19912;-83
2022/10/25 12:26:20;;;;;;;;;;;20.30;82.10;;;;;;5029812;28;19951;-84
2022/10/25 12:28:49;;;;;;;;;;;20.30;81.00;;;;;;5047436;28;19920;-83
2022/10/25 12:31:24;;;;;;;;;;;20.20;81.70;;;;;;5020658;28;20310;-83
2022/10/25 12:34:02;;;;;;;;;;;20.20;81.90;;;;;;5045879;28;19917;-83
2022/10/25 12:36:31;;;;;;;;;;;20.10;80.90;;;;;;5047801;28;19909;-83
2022/10/25 12:39:01;;;;;;;;;;;20.20;81.30;;;;;;5038858;28;19912;-83
2022/10/25 12:41:28;;;;;;;;;;;20.30;80.50;;;;;;5047324;28;19924;-83
2022/10/25 12:44:06;;;;;;;;;;;20.40;80.20;;;;;;5045360;28;20005;-82
2022/10/25 12:46:46;;;;;;;;;;;20.50;80.00;;;;;;5039310;28;19912;-82
2022/10/25 12:49:26;;;;;;;;;;;20.50;79.60;;;;;;5047333;28;19917;-82
2022/10/25 12:52:03;;;;;;;;;;;20.90;79.20;;;;;;5045947;28;19917;-82
2022/10/25 12:54:45;;;;;;;;;;;21.30;78.90;;;;;;5047389;28;19966;-82
2022/10/25 12:57:29;;;;;;;;;;;21.30;78.40;;;;;;5019247;28;19940;-82
2022/10/25 12:59:57;;;;;;;;;;;21.20;78.10;;;;;;5032781;28;20651;-81
2022/10/25 13:02:32;;;;;;;;;;;21.20;77.90;;;;;;5034207;28;20400;-81
2022/10/25 13:05:24;;;;;;;;;;;21.20;78.20;;;;;;5029096;28;20470;-81
2022/10/25 13:07:50;;;;;;;;;;;21.30;78.40;;;;;;5015570;28;19912;-81
2022/10/25 13:10:18;;;;;;;;;;;21.20;78.20;;;;;;5032200;28;20587;-81
2022/10/25 13:12:57;;;;;;;;;;;21.00;78.40;;;;;;5024337;28;19917;-82
2022/10/25 13:15:23;;;;;;;;;;;20.90;79.90;;;;;;5011376;28;19966;-82
2022/10/25 13:18:03;;;;;;;;;;;20.90;80.10;;;;;;5022862;28;19917;-81
2022/10/25 13:20:32;;;;;;;;;;;20.90;82.00;;;;;;5023699;28;19920;-81
2022/10/25 13:22:58;;;;;;;;;;;20.90;79.80;;;;;;5041889;28;19912;-82
2022/10/25 13:25:29;;;;;;;;;;;20.70;81.10;;;;;;5045058;28;19914;-82
2022/10/25 13:28:18;;;;;;;;;;;20.50;81.80;;;;;;5013085;28;19956;-80
2022/10/25 13:30:44;;;;;;;;;;;20.50;82.10;;;;;;5032987;28;19917;-81
2022/10/25 13:33:32;;;;;;;;;;;20.40;81.20;;;;;;5021795;28;20478;-83
2022/10/25 13:35:59;;;;;;;;;;;20.50;81.40;;;;;;5020530;28;19917;-82
2022/10/25 13:38:29;;;;;;;;;;;20.70;81.40;;;;;;5019536;28;19982;-81
2022/10/25 13:41:07;;;;;;;;;;;20.70;81.40;;;;;;5041033;28;19921;-81
2022/10/25 13:43:33;;;;;;;;;;;20.70;81.70;;;;;;5028914;28;19924;-82
2022/10/25 13:45:58;;;;;;;;;;;20.80;81.50;;;;;;5015685;28;19913;-81
2022/10/25 13:48:31;;;;;;;;;;;20.70;81.70;;;;;;5042323;28;20079;-82
2022/10/25 13:50:58;;;;;;;;;;;20.70;81.20;;;;;;5047731;28;19913;-82
2022/10/25 13:53:36;;;;;;;;;;;20.70;81.70;;;;;;5046209;28;19964;-82
2022/10/25 13:56:08;;;;;;;;;;;20.70;81.90;;;;;;5032453;28;19967;-82
2022/10/25 13:58:33;;;;;;;;;;;20.70;81.30;;;;;;5026612;28;19921;-82
2022/10/25 14:01:14;;;;;;;;;;;20.80;81.00;;;;;;5015628;28;19963;-82
2022/10/25 14:03:50;;;;;;;;;;;20.70;81.50;;;;;;5030190;28;19921;-80
2022/10/25 14:06:22;;;;;;;;;;;20.70;82.10;;;;;;5014217;28;19917;-81
2022/10/25 14:08:48;;;;;;;;;;;20.80;82.00;;;;;;5013959;28;19913;-82
2022/10/25 14:11:19;;;;;;;;;;;20.90;80.90;;;;;;5034997;28;20039;-82
2022/10/25 14:13:53;;;;;;;;;;;21.00;80.60;;;;;;5039985;28;20471;-83
2022/10/25 14:16:30;;;;;;;;;;;21.10;80.80;;;;;;5034184;28;19917;-81
2022/10/25 14:18:58;;;;;;;;;;;21.10;80.50;;;;;;5042499;28;19939;-82
2022/10/25 14:21:24;;;;;;;;;;;21.20;80.20;;;;;;5039854;28;19920;-81
2022/10/25 14:23:51;;;;;;;;;;;21.10;79.50;;;;;;5049952;28;19917;-80
2022/10/25 14:26:18;;;;;;;;;;;21.00;80.60;;;;;;5026571;28;19962;-82